Weather observations for the past three days for
Twentynine Palms SELF Airport
| Date | Time (pdt) | Wind (mph) | Vis. (mi.) | Weather | Sky Cond. | Temperature (ºF) | Relative Humidity | Wind Chill (°F) | Heat Index (°F) | Pressure | Precipitation (in) | ||||||
|---|---|---|---|---|---|---|---|---|---|---|---|---|---|---|---|---|---|
| Air | Dwpt | 6 hour | altimeter (in) | sea level (mb) | 1 hr | 3 hr | 6 hr | ||||||||||
| Max. | Min. | ||||||||||||||||
| 08 | 17:54 | SW 18 G 22 | 10.00 | NULL | NULL | 97 | 21.9 | 7% | 92 | 29.87 | 1007.4 | ||||||
| 08 | 16:54 | NW 8 | 10.00 | NULL | NULL | 98.1 | 19.9 | 99 | 90 | 6% | 93 | 29.88 | 1007.7 | ||||
| 08 | 15:54 | NE 5 | 10.00 | NULL | NULL | 97 | 19 | 6% | 92 | 29.89 | 1008.3 | ||||||
| 08 | 14:54 | N 5 | 10.00 | NULL | NULL | 97 | 19 | 6% | 92 | 29.92 | 1009.1 | ||||||
| 08 | 12:54 | Vrbl 3 | 10.00 | NULL | NULL | 93.9 | 21.9 | 7% | 89 | 29.97 | 1010.9 | ||||||
| 08 | 11:54 | Calm | 10.00 | NULL | NULL | 91.9 | 24.1 | 8% | 88 | 29.98 | 1011.4 | ||||||
| 08 | 10:54 | NW 14 | 10.00 | NULL | NULL | 91 | 28 | 91 | 73 | 10% | 87 | 29.99 | 1011.8 | ||||
| 08 | 08:54 | NW 13 | 10.00 | Fair | CLR | 82.9 | 33.1 | 17% | 80 | 30.02 | 1012.6 | ||||||
| 08 | 07:54 | NW 9 | 10.00 | Fair | CLR | 79 | 32 | 18% | 78 | 30.02 | 1012.8 | ||||||
| 08 | 06:54 | W 8 | 10.00 | Fair | CLR | 75 | 33.1 | 22% | 76 | 30.01 | 1012.3 | ||||||
| 08 | 05:54 | NW 8 | 10.00 | Fair | CLR | 73.9 | 33.1 | 22% | 29.99 | 1011.7 | |||||||
| 08 | 04:54 | N 7 | 10.00 | Fair | CLR | 75 | 34 | 81 | 73.9 | 22% | 76 | 29.98 | 1011.3 | ||||
| 08 | 03:54 | N 8 | 10.00 | Fair | CLR | 75 | 35.1 | 23% | 76 | 29.97 | 1011.0 | ||||||
| 08 | 01:54 | Vrbl 3 | 10.00 | Fair | CLR | 79 | 36 | 21% | 78 | 29.97 | 1011.0 | ||||||
| 07 | 23:54 | N 8 | 10.00 | NULL | NULL | 79 | 37.9 | 23% | 78 | 29.98 | 1011.3 | ||||||
| 07 | 22:54 | NW 16 G 29 | 10.00 | NULL | NULL | 81 | 37.9 | 93 | 81 | 21% | 79 | 29.97 | 1011.1 | ||||
| 07 | 21:54 | W 12 G 21 | 10.00 | NULL | NULL | 82.9 | 35.1 | 18% | 80 | 29.97 | 1011.2 | ||||||
| 07 | 20:54 | W 10 | 10.00 | NULL | NULL | 84 | 30.9 | 15% | 81 | 29.96 | 1010.7 | ||||||
| 07 | 19:54 | SW 12 | 10.00 | NULL | NULL | 86 | 30.9 | 14% | 83 | 29.93 | 1009.9 | ||||||
| 07 | 18:54 | N 6 | 10.00 | NULL | NULL | 91 | 24.1 | 9% | 87 | 29.91 | 1009.4 | ||||||
| 07 | 17:54 | N 6 | 10.00 | NULL | NULL | 91.9 | 24.1 | 8% | 88 | 29.91 | 1009.4 | ||||||
| 07 | 16:54 | N 7 G 18 | 10.00 | NULL | NULL | 93 | 25 | 93.9 | 84.9 | 8% | 88 | 29.92 | 1009.6 | ||||
| 07 | 15:54 | NW 8 | 10.00 | NULL | NULL | 93 | 25 | 8% | 88 | 29.93 | 1010.1 | ||||||
| 07 | 12:54 | Vrbl 3 | 10.00 | NULL | NULL | 89.1 | 28.9 | 11% | 85 | 30.01 | 1012.7 | ||||||
| 07 | 11:54 | Vrbl 3 | 10.00 | NULL | NULL | 89.1 | 30 | 12% | 85 | 30.03 | 1013.6 | ||||||
| 07 | 10:54 | Calm | 10.00 | NULL | NULL | 86 | 32 | 86 | 64.9 | 14% | 83 | 30.06 | 1014.3 | ||||
| 07 | 09:54 | SW 5 | 10.00 | Fair | CLR | 82.9 | 35.1 | 18% | 80 | 30.07 | 1014.6 | ||||||
| 07 | 08:54 | Vrbl 5 | 10.00 | Fair | CLR | 80.1 | 37 | 21% | 79 | 30.07 | 1014.8 | ||||||
| 07 | 05:54 | NW 5 | 10.00 | Fair | CLR | 64.9 | 39.9 | 40% | 30.06 | 1014.5 | |||||||
| 07 | 04:54 | NW 6 | 10.00 | Fair | CLR | 66 | 39.9 | 72 | 64.9 | 39% | 30.05 | 1014.4 | |||||
| 07 | 03:54 | W 9 | 10.00 | Fair | CLR | 66.9 | 39 | 36% | 30.06 | 1014.5 | |||||||
| 07 | 02:54 | NW 5 | 10.00 | Fair | CLR | 66.9 | 36 | 32% | 30.06 | 1014.5 | |||||||
| 07 | 01:54 | W 5 | 10.00 | Fair | CLR | 66 | 30 | 26% | 30.07 | 1014.9 | |||||||
| 07 | 00:54 | NW 10 | 10.00 | Fair | CLR | 70 | 30.9 | 23% | 30.07 | 1014.9 | |||||||
| 06 | 22:54 | Calm | 10.00 | Fair | CLR | 72 | 37.9 | 84 | 72 | 29% | 30.06 | 1014.7 | |||||
| 06 | 21:54 | SW 12 | 10.00 | Fair | CLR | 73 | 37.9 | 28% | 30.05 | 1014.4 | |||||||
| 06 | 20:54 | S 5 | 10.00 | NULL | NULL | 75 | 32 | 21% | 76 | 30.04 | 1014.1 | ||||||
| 06 | 19:54 | Calm | 10.00 | NULL | NULL | 79 | 32 | 18% | 78 | 30.01 | 1013.3 | ||||||
| 06 | 18:54 | N 10 | 10.00 | NULL | NULL | 82 | 32 | 16% | 80 | 30 | 1012.8 | ||||||
| 06 | 16:54 | N 8 | 10.00 | NULL | NULL | 82.9 | 33.1 | 84.9 | 71.1 | 17% | 80 | 30 | 1012.7 | ||||
| 06 | 15:54 | Calm | 10.00 | NULL | NULL | 82 | 35.1 | 18% | 80 | 30 | 1013.1 | ||||||
| 06 | 13:54 | N 8 | 10.00 | NULL | NULL | 80.1 | 35.1 | 20% | 79 | 30.05 | 1014.8 | ||||||
| 06 | 12:54 | Vrbl 5 | 10.00 | Fair | CLR | 77 | 35.1 | 22% | 77 | 30.07 | 1015.5 | ||||||
| 06 | 10:54 | Calm | 10.00 | Fair | CLR | 71.1 | 36 | 71.1 | 55 | 28% | 30.1 | 1016.7 | |||||
| 06 | 09:54 | NE 5 | 10.00 | Fair | CLR | 69.1 | 37 | 31% | 30.1 | 1016.6 | |||||||
| 06 | 07:54 | W 9 | 10.00 | Fair | CLR | 61 | 37.9 | 43% | 30.1 | 1016.5 | |||||||
| 06 | 06:54 | Calm | 10.00 | Fair | CLR | 57 | 37 | 47% | 30.09 | 1016.4 | |||||||
| 06 | 04:54 | W 10 | 10.00 | Fair | CLR | 55.9 | 37 | 61 | 55.9 | 49% | 30.06 | 1015.3 | |||||
| 06 | 03:54 | W 9 | 10.00 | Fair | CLR | 55.9 | 37.9 | 51% | 30.05 | 1015.0 | |||||||
| 06 | 02:54 | W 10 | 10.00 | Fair | CLR | 57 | 37.9 | 49% | 30.04 | 1014.6 | |||||||
| 06 | 01:54 | W 6 | 10.00 | Fair | CLR | 57.9 | 37.9 | 48% | 30.04 | 1014.5 | |||||||
| 06 | 00:54 | NW 9 G 22 | 10.00 | Fair | CLR | 59 | 37.9 | 46% | 30.04 | 1014.5 | |||||||
| 05 | 23:54 | N 9 | 10.00 | Fair | CLR | 60.1 | 39 | 46% | 30.02 | 1013.9 | |||||||
| 05 | 22:54 | N 10 G 24 | 10.00 | Fair | CLR | 61 | 39 | 73.9 | 61 | 44% | 30.01 | 1013.6 | |||||
| 05 | 21:54 | NW 18 G 29 | 10.00 | Fair | CLR | 63 | 39 | 41% | 29.98 | 1012.7 | |||||||
| 05 | 20:54 | NW 17 G 31 | 10.00 | Fair | CLR | 64.9 | 37.9 | 37% | 29.96 | 1011.8 | |||||||
| 05 | 19:54 | W 20 G 26 | 10.00 | Partly Cloudy | SCT090 | 68 | 36 | 31% | 29.92 | 1010.7 | |||||||
| Date | Time (pdt) | Wind (mph) | Vis. (mi.) | Weather | Sky Cond. | Air | Dwpt | Max. | Min. | Relative Humidity | Wind Chill (°F) | Heat Index (°F) | altimeter (in) | sea level (mb) | 1 hr | 3 hr | 6 hr |
| 6 hour | |||||||||||||||||
| Temperature (ºF) | Pressure | Precipitation (in) | |||||||||||||||